sensor_id;sensor_type;location;lat;lon;timestamp;P1;durP1;ratioP1;P2;durP2;ratioP2
54408;SDS011;40315;48.620;9.828;2023-04-24T00:02:14;1.52;;;0.70;;
54408;SDS011;40315;48.620;9.828;2023-04-24T00:04:43;0.77;;;0.77;;
54408;SDS011;40315;48.620;9.828;2023-04-24T00:07:13;0.95;;;0.80;;
54408;SDS011;40315;48.620;9.828;2023-04-24T00:09:41;2.00;;;1.02;;
54408;SDS011;40315;48.620;9.828;2023-04-24T00:12:11;3.08;;;1.40;;
54408;SDS011;40315;48.620;9.828;2023-04-24T00:14:38;1.92;;;0.90;;
54408;SDS011;40315;48.620;9.828;2023-04-24T00:17:08;2.03;;;0.90;;
54408;SDS011;40315;48.620;9.828;2023-04-24T00:19:35;2.45;;;1.10;;
54408;SDS011;40315;48.620;9.828;2023-04-24T00:22:02;1.83;;;1.05;;
54408;SDS011;40315;48.620;9.828;2023-04-24T00:24:29;0.98;;;0.80;;
54408;SDS011;40315;48.620;9.828;2023-04-24T00:26:56;1.45;;;0.98;;
54408;SDS011;40315;48.620;9.828;2023-04-24T00:29:24;2.03;;;0.82;;
54408;SDS011;40315;48.620;9.828;2023-04-24T00:31:53;1.38;;;0.93;;
54408;SDS011;40315;48.620;9.828;2023-04-24T00:34:21;3.03;;;1.20;;
54408;SDS011;40315;48.620;9.828;2023-04-24T00:36:48;1.38;;;0.88;;
54408;SDS011;40315;48.620;9.828;2023-04-24T00:39:17;1.88;;;0.80;;
54408;SDS011;40315;48.620;9.828;2023-04-24T00:41:44;0.70;;;0.55;;
54408;SDS011;40315;48.620;9.828;2023-04-24T00:44:12;0.90;;;0.70;;
54408;SDS011;40315;48.620;9.828;2023-04-24T00:46:39;1.90;;;0.75;;
54408;SDS011;40315;48.620;9.828;2023-04-24T00:49:07;1.23;;;0.63;;
54408;SDS011;40315;48.620;9.828;2023-04-24T00:51:37;0.63;;;0.63;;
54408;SDS011;40315;48.620;9.828;2023-04-24T00:54:05;1.27;;;0.70;;
54408;SDS011;40315;48.620;9.828;2023-04-24T00:56:32;1.63;;;0.80;;
54408;SDS011;40315;48.620;9.828;2023-04-24T00:59:00;1.95;;;0.70;;
54408;SDS011;40315;48.620;9.828;2023-04-24T01:04:09;0.65;;;0.60;;
54408;SDS011;40315;48.620;9.828;2023-04-24T01:06:41;2.58;;;0.65;;
54408;SDS011;40315;48.620;9.828;2023-04-24T01:09:10;1.23;;;0.63;;
54408;SDS011;40315;48.620;9.828;2023-04-24T01:11:39;1.73;;;0.65;;
54408;SDS011;40315;48.620;9.828;2023-04-24T01:14:08;2.10;;;0.70;;
54408;SDS011;40315;48.620;9.828;2023-04-24T01:16:36;1.13;;;0.80;;
54408;SDS011;40315;48.620;9.828;2023-04-24T01:19:04;1.58;;;0.73;;
54408;SDS011;40315;48.620;9.828;2023-04-24T01:21:36;1.70;;;0.70;;
54408;SDS011;40315;48.620;9.828;2023-04-24T01:24:07;3.90;;;0.85;;
54408;SDS011;40315;48.620;9.828;2023-04-24T01:26:34;1.92;;;0.50;;
54408;SDS011;40315;48.620;9.828;2023-04-24T01:29:01;1.60;;;0.65;;
54408;SDS011;40315;48.620;9.828;2023-04-24T01:31:28;0.77;;;0.50;;
54408;SDS011;40315;48.620;9.828;2023-04-24T01:33:56;0.60;;;0.60;;
54408;SDS011;40315;48.620;9.828;2023-04-24T01:36:25;0.93;;;0.70;;
54408;SDS011;40315;48.620;9.828;2023-04-24T01:38:55;0.98;;;0.68;;
54408;SDS011;40315;48.620;9.828;2023-04-24T01:41:26;1.23;;;0.63;;
54408;SDS011;40315;48.620;9.828;2023-04-24T01:43:53;1.13;;;0.60;;
54408;SDS011;40315;48.620;9.828;2023-04-24T01:52:54;1.60;;;0.80;;
54408;SDS011;40315;48.620;9.828;2023-04-24T01:55:21;0.88;;;0.73;;
54408;SDS011;40315;48.620;9.828;2023-04-24T01:57:50;0.70;;;0.60;;
54408;SDS011;40315;48.620;9.828;2023-04-24T02:00:20;0.70;;;0.70;;
54408;SDS011;40315;48.620;9.828;2023-04-24T02:02:47;1.92;;;0.90;;
54408;SDS011;40315;48.620;9.828;2023-04-24T02:05:18;1.08;;;0.90;;
54408;SDS011;40315;48.620;9.828;2023-04-24T02:07:45;0.77;;;0.70;;
54408;SDS011;40315;48.620;9.828;2023-04-24T02:10:12;1.48;;;0.70;;
54408;SDS011;40315;48.620;9.828;2023-04-24T02:12:42;0.80;;;0.70;;
54408;SDS011;40315;48.620;9.828;2023-04-24T02:15:12;0.88;;;0.60;;
54408;SDS011;40315;48.620;9.828;2023-04-24T02:17:40;1.35;;;0.80;;
54408;SDS011;40315;48.620;9.828;2023-04-24T02:20:07;1.58;;;0.80;;
54408;SDS011;40315;48.620;9.828;2023-04-24T02:22:34;1.38;;;0.80;;
54408;SDS011;40315;48.620;9.828;2023-04-24T02:25:01;2.70;;;0.90;;
54408;SDS011;40315;48.620;9.828;2023-04-24T02:27:29;1.15;;;0.70;;
54408;SDS011;40315;48.620;9.828;2023-04-24T02:29:56;2.40;;;0.80;;
54408;SDS011;40315;48.620;9.828;2023-04-24T02:32:25;2.42;;;0.90;;
54408;SDS011;40315;48.620;9.828;2023-04-24T02:34:52;0.95;;;0.75;;
54408;SDS011;40315;48.620;9.828;2023-04-24T02:37:19;0.80;;;0.80;;
54408;SDS011;40315;48.620;9.828;2023-04-24T02:39:45;0.90;;;0.80;;
54408;SDS011;40315;48.620;9.828;2023-04-24T02:42:13;2.00;;;0.80;;
54408;SDS011;40315;48.620;9.828;2023-04-24T02:44:43;0.90;;;0.80;;
54408;SDS011;40315;48.620;9.828;2023-04-24T02:47:12;1.00;;;0.77;;
54408;SDS011;40315;48.620;9.828;2023-04-24T02:49:40;2.15;;;0.90;;
54408;SDS011;40315;48.620;9.828;2023-04-24T02:52:07;2.40;;;1.08;;
54408;SDS011;40315;48.620;9.828;2023-04-24T02:54:34;1.63;;;0.90;;
54408;SDS011;40315;48.620;9.828;2023-04-24T02:57:04;1.75;;;0.80;;
54408;SDS011;40315;48.620;9.828;2023-04-24T02:59:31;1.50;;;0.70;;
54408;SDS011;40315;48.620;9.828;2023-04-24T03:01:58;1.27;;;0.60;;
54408;SDS011;40315;48.620;9.828;2023-04-24T03:04:25;2.33;;;0.70;;
54408;SDS011;40315;48.620;9.828;2023-04-24T03:06:54;1.10;;;1.00;;
54408;SDS011;40315;48.620;9.828;2023-04-24T03:09:24;1.35;;;0.80;;
54408;SDS011;40315;48.620;9.828;2023-04-24T03:11:51;1.10;;;0.60;;
54408;SDS011;40315;48.620;9.828;2023-04-24T03:14:18;1.95;;;0.90;;
54408;SDS011;40315;48.620;9.828;2023-04-24T03:16:45;1.05;;;0.70;;
54408;SDS011;40315;48.620;9.828;2023-04-24T03:19:12;2.17;;;0.93;;
54408;SDS011;40315;48.620;9.828;2023-04-24T03:21:51;0.90;;;0.73;;
54408;SDS011;40315;48.620;9.828;2023-04-24T03:24:19;1.15;;;0.90;;
54408;SDS011;40315;48.620;9.828;2023-04-24T03:26:48;1.88;;;0.95;;
54408;SDS011;40315;48.620;9.828;2023-04-24T03:29:36;1.88;;;0.90;;
54408;SDS011;40315;48.620;9.828;2023-04-24T03:32:05;0.95;;;0.80;;
54408;SDS011;40315;48.620;9.828;2023-04-24T03:34:34;0.88;;;0.75;;
54408;SDS011;40315;48.620;9.828;2023-04-24T03:37:02;0.82;;;0.63;;
54408;SDS011;40315;48.620;9.828;2023-04-24T03:39:32;0.93;;;0.80;;
54408;SDS011;40315;48.620;9.828;2023-04-24T03:41:59;1.63;;;0.80;;
54408;SDS011;40315;48.620;9.828;2023-04-24T03:44:38;3.03;;;0.50;;
54408;SDS011;40315;48.620;9.828;2023-04-24T03:47:05;0.70;;;0.50;;
54408;SDS011;40315;48.620;9.828;2023-04-24T03:49:36;1.65;;;0.68;;
54408;SDS011;40315;48.620;9.828;2023-04-24T03:52:04;1.38;;;0.82;;
54408;SDS011;40315;48.620;9.828;2023-04-24T03:54:32;2.50;;;0.52;;
54408;SDS011;40315;48.620;9.828;2023-04-24T03:56:59;1.60;;;0.70;;
54408;SDS011;40315;48.620;9.828;2023-04-24T03:59:30;1.20;;;1.00;;
54408;SDS011;40315;48.620;9.828;2023-04-24T04:02:07;2.17;;;0.75;;
54408;SDS011;40315;48.620;9.828;2023-04-24T04:04:35;0.90;;;0.60;;
54408;SDS011;40315;48.620;9.828;2023-04-24T04:07:02;2.80;;;1.05;;
54408;SDS011;40315;48.620;9.828;2023-04-24T04:09:30;0.90;;;0.70;;
54408;SDS011;40315;48.620;9.828;2023-04-24T04:11:59;0.98;;;0.85;;
54408;SDS011;40315;48.620;9.828;2023-04-24T04:14:26;2.20;;;0.88;;
54408;SDS011;40315;48.620;9.828;2023-04-24T04:16:54;1.20;;;0.88;;
54408;SDS011;40315;48.620;9.828;2023-04-24T04:19:21;1.17;;;0.70;;
54408;SDS011;40315;48.620;9.828;2023-04-24T04:21:48;1.05;;;0.55;;
54408;SDS011;40315;48.620;9.828;2023-04-24T04:24:44;2.47;;;0.70;;
54408;SDS011;40315;48.620;9.828;2023-04-24T04:27:13;1.05;;;0.63;;
54408;SDS011;40315;48.620;9.828;2023-04-24T04:29:49;1.38;;;0.50;;
54408;SDS011;40315;48.620;9.828;2023-04-24T04:32:16;1.55;;;0.73;;
54408;SDS011;40315;48.620;9.828;2023-04-24T04:34:46;1.23;;;0.80;;
54408;SDS011;40315;48.620;9.828;2023-04-24T04:37:15;1.77;;;0.70;;
54408;SDS011;40315;48.620;9.828;2023-04-24T04:40:08;0.60;;;0.60;;
54408;SDS011;40315;48.620;9.828;2023-04-24T04:42:43;1.58;;;0.65;;
54408;SDS011;40315;48.620;9.828;2023-04-24T04:45:12;1.30;;;0.70;;
54408;SDS011;40315;48.620;9.828;2023-04-24T04:47:59;1.77;;;0.75;;
54408;SDS011;40315;48.620;9.828;2023-04-24T04:50:28;2.28;;;0.80;;
54408;SDS011;40315;48.620;9.828;2023-04-24T04:53:01;0.70;;;0.65;;
54408;SDS011;40315;48.620;9.828;2023-04-24T04:55:34;1.55;;;0.90;;
54408;SDS011;40315;48.620;9.828;2023-04-24T04:58:14;2.35;;;1.15;;
54408;SDS011;40315;48.620;9.828;2023-04-24T05:00:44;2.10;;;1.30;;
54408;SDS011;40315;48.620;9.828;2023-04-24T05:03:31;1.73;;;0.98;;
54408;SDS011;40315;48.620;9.828;2023-04-24T05:06:03;1.15;;;0.98;;
54408;SDS011;40315;48.620;9.828;2023-04-24T05:08:36;1.95;;;0.80;;
54408;SDS011;40315;48.620;9.828;2023-04-24T05:11:06;1.70;;;0.98;;
54408;SDS011;40315;48.620;9.828;2023-04-24T05:13:36;1.60;;;0.68;;
54408;SDS011;40315;48.620;9.828;2023-04-24T05:16:06;0.82;;;0.82;;
54408;SDS011;40315;48.620;9.828;2023-04-24T05:18:39;1.83;;;0.70;;
54408;SDS011;40315;48.620;9.828;2023-04-24T05:21:08;1.02;;;0.68;;
54408;SDS011;40315;48.620;9.828;2023-04-24T05:23:39;2.10;;;0.90;;
54408;SDS011;40315;48.620;9.828;2023-04-24T05:26:06;0.73;;;0.70;;
54408;SDS011;40315;48.620;9.828;2023-04-24T05:28:36;1.50;;;0.52;;
54408;SDS011;40315;48.620;9.828;2023-04-24T05:31:10;1.25;;;0.70;;
54408;SDS011;40315;48.620;9.828;2023-04-24T05:33:37;0.65;;;0.57;;
54408;SDS011;40315;48.620;9.828;2023-04-24T05:36:07;1.33;;;0.70;;
54408;SDS011;40315;48.620;9.828;2023-04-24T05:38:35;1.58;;;0.70;;
54408;SDS011;40315;48.620;9.828;2023-04-24T05:41:02;3.17;;;1.20;;
54408;SDS011;40315;48.620;9.828;2023-04-24T05:43:29;3.45;;;1.20;;
54408;SDS011;40315;48.620;9.828;2023-04-24T05:45:57;1.67;;;1.00;;
54408;SDS011;40315;48.620;9.828;2023-04-24T05:48:25;2.35;;;0.90;;
54408;SDS011;40315;48.620;9.828;2023-04-24T05:50:52;1.70;;;1.05;;
54408;SDS011;40315;48.620;9.828;2023-04-24T05:53:19;1.10;;;1.00;;
54408;SDS011;40315;48.620;9.828;2023-04-24T05:55:46;2.00;;;1.30;;
54408;SDS011;40315;48.620;9.828;2023-04-24T05:58:13;2.53;;;1.38;;
54408;SDS011;40315;48.620;9.828;2023-04-24T06:00:41;1.20;;;1.08;;
54408;SDS011;40315;48.620;9.828;2023-04-24T06:03:10;1.48;;;1.20;;
54408;SDS011;40315;48.620;9.828;2023-04-24T06:05:37;1.92;;;1.50;;
54408;SDS011;40315;48.620;9.828;2023-04-24T06:08:07;2.35;;;1.23;;
54408;SDS011;40315;48.620;9.828;2023-04-24T06:10:37;2.63;;;1.50;;
54408;SDS011;40315;48.620;9.828;2023-04-24T06:13:06;2.35;;;1.42;;
54408;SDS011;40315;48.620;9.828;2023-04-24T06:15:36;1.67;;;1.50;;
54408;SDS011;40315;48.620;9.828;2023-04-24T06:18:06;1.60;;;1.40;;
54408;SDS011;40315;48.620;9.828;2023-04-24T06:20:36;2.58;;;1.42;;
54408;SDS011;40315;48.620;9.828;2023-04-24T06:23:03;1.70;;;1.20;;
54408;SDS011;40315;48.620;9.828;2023-04-24T06:25:32;1.70;;;1.38;;
54408;SDS011;40315;48.620;9.828;2023-04-24T06:27:59;2.35;;;1.50;;
54408;SDS011;40315;48.620;9.828;2023-04-24T06:30:29;4.00;;;1.50;;
54408;SDS011;40315;48.620;9.828;2023-04-24T06:32:58;1.73;;;1.50;;
54408;SDS011;40315;48.620;9.828;2023-04-24T06:35:25;3.05;;;1.17;;
54408;SDS011;40315;48.620;9.828;2023-04-24T06:37:56;2.45;;;1.50;;
54408;SDS011;40315;48.620;9.828;2023-04-24T06:40:23;2.05;;;1.50;;
54408;SDS011;40315;48.620;9.828;2023-04-24T06:42:50;2.47;;;1.83;;
54408;SDS011;40315;48.620;9.828;2023-04-24T06:45:17;2.17;;;1.55;;
54408;SDS011;40315;48.620;9.828;2023-04-24T06:47:44;1.95;;;1.75;;
54408;SDS011;40315;48.620;9.828;2023-04-24T06:50:11;3.38;;;1.50;;
54408;SDS011;40315;48.620;9.828;2023-04-24T06:52:38;3.10;;;1.92;;
54408;SDS011;40315;48.620;9.828;2023-04-24T06:55:07;2.35;;;1.70;;
54408;SDS011;40315;48.620;9.828;2023-04-24T06:57:38;2.95;;;1.80;;
54408;SDS011;40315;48.620;9.828;2023-04-24T07:00:06;2.38;;;2.03;;
54408;SDS011;40315;48.620;9.828;2023-04-24T07:02:34;2.50;;;1.55;;
54408;SDS011;40315;48.620;9.828;2023-04-24T07:05:01;1.92;;;1.60;;
54408;SDS011;40315;48.620;9.828;2023-04-24T07:07:28;3.42;;;1.80;;
54408;SDS011;40315;48.620;9.828;2023-04-24T07:09:56;2.60;;;1.85;;
54408;SDS011;40315;48.620;9.828;2023-04-24T07:12:27;1.95;;;1.60;;
54408;SDS011;40315;48.620;9.828;2023-04-24T07:14:54;3.20;;;2.22;;
54408;SDS011;40315;48.620;9.828;2023-04-24T07:17:21;2.17;;;1.92;;
54408;SDS011;40315;48.620;9.828;2023-04-24T07:19:50;2.85;;;2.17;;
54408;SDS011;40315;48.620;9.828;2023-04-24T07:22:17;1.80;;;1.70;;
54408;SDS011;40315;48.620;9.828;2023-04-24T07:24:47;2.42;;;2.10;;
54408;SDS011;40315;48.620;9.828;2023-04-24T07:27:14;2.30;;;1.70;;
54408;SDS011;40315;48.620;9.828;2023-04-24T07:29:42;3.47;;;1.98;;
54408;SDS011;40315;48.620;9.828;2023-04-24T07:32:09;2.38;;;1.95;;
54408;SDS011;40315;48.620;9.828;2023-04-24T07:34:36;2.60;;;2.22;;
54408;SDS011;40315;48.620;9.828;2023-04-24T07:37:03;3.03;;;2.17;;
54408;SDS011;40315;48.620;9.828;2023-04-24T07:39:32;2.08;;;1.80;;
54408;SDS011;40315;48.620;9.828;2023-04-24T07:42:25;2.58;;;1.60;;
54408;SDS011;40315;48.620;9.828;2023-04-24T07:44:53;2.70;;;1.70;;
54408;SDS011;40315;48.620;9.828;2023-04-24T07:47:22;2.42;;;1.75;;
54408;SDS011;40315;48.620;9.828;2023-04-24T07:49:49;1.48;;;1.38;;
54408;SDS011;40315;48.620;9.828;2023-04-24T07:52:19;2.03;;;1.60;;
54408;SDS011;40315;48.620;9.828;2023-04-24T07:54:46;2.30;;;1.70;;
54408;SDS011;40315;48.620;9.828;2023-04-24T07:57:13;2.90;;;1.60;;
54408;SDS011;40315;48.620;9.828;2023-04-24T07:59:42;1.42;;;1.33;;
54408;SDS011;40315;48.620;9.828;2023-04-24T08:02:12;1.67;;;1.25;;
54408;SDS011;40315;48.620;9.828;2023-04-24T08:04:43;2.30;;;1.35;;
54408;SDS011;40315;48.620;9.828;2023-04-24T08:07:10;1.33;;;1.23;;
54408;SDS011;40315;48.620;9.828;2023-04-24T08:09:40;3.50;;;1.60;;
54408;SDS011;40315;48.620;9.828;2023-04-24T08:12:07;2.17;;;1.40;;
54408;SDS011;40315;48.620;9.828;2023-04-24T08:14:34;2.67;;;1.80;;
54408;SDS011;40315;48.620;9.828;2023-04-24T08:17:01;3.28;;;1.77;;
54408;SDS011;40315;48.620;9.828;2023-04-24T08:19:29;3.80;;;1.70;;
54408;SDS011;40315;48.620;9.828;2023-04-24T08:21:56;1.55;;;1.20;;
54408;SDS011;40315;48.620;9.828;2023-04-24T08:24:23;1.70;;;1.60;;
54408;SDS011;40315;48.620;9.828;2023-04-24T08:26:50;2.15;;;1.23;;
54408;SDS011;40315;48.620;9.828;2023-04-24T08:29:19;3.47;;;1.50;;
54408;SDS011;40315;48.620;9.828;2023-04-24T08:31:46;1.40;;;1.10;;
54408;SDS011;40315;48.620;9.828;2023-04-24T08:34:13;1.50;;;1.10;;
54408;SDS011;40315;48.620;9.828;2023-04-24T08:36:44;1.25;;;1.15;;
54408;SDS011;40315;48.620;9.828;2023-04-24T08:39:11;1.48;;;0.90;;
54408;SDS011;40315;48.620;9.828;2023-04-24T08:41:38;1.67;;;1.20;;
54408;SDS011;40315;48.620;9.828;2023-04-24T08:44:08;1.20;;;1.10;;
54408;SDS011;40315;48.620;9.828;2023-04-24T08:46:35;2.05;;;1.40;;
54408;SDS011;40315;48.620;9.828;2023-04-24T08:49:03;1.30;;;1.20;;
54408;SDS011;40315;48.620;9.828;2023-04-24T08:51:30;1.52;;;1.33;;
54408;SDS011;40315;48.620;9.828;2023-04-24T08:54:02;1.45;;;1.35;;
54408;SDS011;40315;48.620;9.828;2023-04-24T08:56:33;2.28;;;1.30;;
54408;SDS011;40315;48.620;9.828;2023-04-24T08:59:03;1.65;;;1.55;;
54408;SDS011;40315;48.620;9.828;2023-04-24T09:01:31;1.17;;;1.08;;
54408;SDS011;40315;48.620;9.828;2023-04-24T09:04:00;1.25;;;1.10;;
54408;SDS011;40315;48.620;9.828;2023-04-24T09:06:30;1.40;;;1.30;;
54408;SDS011;40315;48.620;9.828;2023-04-24T09:09:08;1.65;;;1.50;;
54408;SDS011;40315;48.620;9.828;2023-04-24T09:11:37;2.63;;;1.75;;
54408;SDS011;40315;48.620;9.828;2023-04-24T09:14:04;3.67;;;1.88;;
54408;SDS011;40315;48.620;9.828;2023-04-24T09:16:32;1.58;;;1.17;;
54408;SDS011;40315;48.620;9.828;2023-04-24T09:19:00;3.38;;;2.30;;
54408;SDS011;40315;48.620;9.828;2023-04-24T09:21:31;1.95;;;1.55;;
54408;SDS011;40315;48.620;9.828;2023-04-24T09:23:59;1.40;;;1.30;;
54408;SDS011;40315;48.620;9.828;2023-04-24T09:26:30;1.67;;;1.40;;
54408;SDS011;40315;48.620;9.828;2023-04-24T09:28:58;3.08;;;2.30;;
54408;SDS011;40315;48.620;9.828;2023-04-24T09:31:26;3.05;;;1.90;;
54408;SDS011;40315;48.620;9.828;2023-04-24T09:33:55;4.05;;;1.77;;
54408;SDS011;40315;48.620;9.828;2023-04-24T09:36:27;1.80;;;1.20;;
54408;SDS011;40315;48.620;9.828;2023-04-24T09:38:57;2.35;;;1.52;;
54408;SDS011;40315;48.620;9.828;2023-04-24T09:41:25;2.33;;;1.70;;
54408;SDS011;40315;48.620;9.828;2023-04-24T09:43:55;2.65;;;1.52;;
54408;SDS011;40315;48.620;9.828;2023-04-24T09:46:29;2.67;;;1.40;;
54408;SDS011;40315;48.620;9.828;2023-04-24T09:48:56;2.33;;;1.45;;
54408;SDS011;40315;48.620;9.828;2023-04-24T09:51:33;2.35;;;1.52;;
54408;SDS011;40315;48.620;9.828;2023-04-24T09:54:02;1.23;;;1.05;;
54408;SDS011;40315;48.620;9.828;2023-04-24T09:56:32;2.15;;;1.25;;
54408;SDS011;40315;48.620;9.828;2023-04-24T09:59:07;1.30;;;1.20;;
54408;SDS011;40315;48.620;9.828;2023-04-24T10:01:34;2.08;;;1.10;;
54408;SDS011;40315;48.620;9.828;2023-04-24T10:04:03;7.13;;;1.40;;
54408;SDS011;40315;48.620;9.828;2023-04-24T10:06:34;2.35;;;1.10;;
54408;SDS011;40315;48.620;9.828;2023-04-24T10:09:02;1.50;;;1.02;;
54408;SDS011;40315;48.620;9.828;2023-04-24T10:11:30;1.95;;;1.20;;
54408;SDS011;40315;48.620;9.828;2023-04-24T10:13:57;1.70;;;1.00;;
54408;SDS011;40315;48.620;9.828;2023-04-24T10:16:26;3.65;;;1.45;;
54408;SDS011;40315;48.620;9.828;2023-04-24T10:18:53;1.58;;;0.90;;
54408;SDS011;40315;48.620;9.828;2023-04-24T10:21:21;3.28;;;0.75;;
54408;SDS011;40315;48.620;9.828;2023-04-24T10:23:52;1.67;;;1.38;;
54408;SDS011;40315;48.620;9.828;2023-04-24T10:26:23;1.42;;;1.00;;
54408;SDS011;40315;48.620;9.828;2023-04-24T10:28:51;1.23;;;1.10;;
54408;SDS011;40315;48.620;9.828;2023-04-24T10:31:20;2.47;;;1.13;;
54408;SDS011;40315;48.620;9.828;2023-04-24T10:33:51;1.67;;;1.10;;
54408;SDS011;40315;48.620;9.828;2023-04-24T10:36:20;1.50;;;1.00;;
54408;SDS011;40315;48.620;9.828;2023-04-24T10:38:52;1.92;;;1.20;;
54408;SDS011;40315;48.620;9.828;2023-04-24T10:41:24;1.45;;;1.00;;
54408;SDS011;40315;48.620;9.828;2023-04-24T10:44:03;2.72;;;1.20;;
54408;SDS011;40315;48.620;9.828;2023-04-24T10:46:31;2.17;;;1.25;;
54408;SDS011;40315;48.620;9.828;2023-04-24T10:49:00;1.48;;;0.95;;
54408;SDS011;40315;48.620;9.828;2023-04-24T10:51:44;1.80;;;1.10;;
54408;SDS011;40315;48.620;9.828;2023-04-24T10:54:22;1.20;;;1.10;;
54408;SDS011;40315;48.620;9.828;2023-04-24T10:56:53;1.08;;;0.90;;
54408;SDS011;40315;48.620;9.828;2023-04-24T10:59:41;1.17;;;1.08;;
54408;SDS011;40315;48.620;9.828;2023-04-24T11:02:09;3.72;;;1.30;;
54408;SDS011;40315;48.620;9.828;2023-04-24T11:04:36;1.15;;;1.05;;
54408;SDS011;40315;48.620;9.828;2023-04-24T11:07:05;1.25;;;1.00;;
54408;SDS011;40315;48.620;9.828;2023-04-24T11:09:32;2.95;;;1.05;;
54408;SDS011;40315;48.620;9.828;2023-04-24T11:12:06;3.38;;;1.08;;
54408;SDS011;40315;48.620;9.828;2023-04-24T11:17:31;1.85;;;1.20;;
54408;SDS011;40315;48.620;9.828;2023-04-24T11:20:00;1.58;;;0.93;;
54408;SDS011;40315;48.620;9.828;2023-04-24T11:22:28;2.15;;;1.23;;
54408;SDS011;40315;48.620;9.828;2023-04-24T11:25:00;1.00;;;0.88;;
54408;SDS011;40315;48.620;9.828;2023-04-24T11:27:30;1.17;;;1.00;;
54408;SDS011;40315;48.620;9.828;2023-04-24T11:30:06;3.35;;;1.30;;
54408;SDS011;40315;48.620;9.828;2023-04-24T11:32:34;1.58;;;0.90;;
54408;SDS011;40315;48.620;9.828;2023-04-24T11:35:03;1.23;;;1.00;;
54408;SDS011;40315;48.620;9.828;2023-04-24T11:37:35;1.15;;;0.90;;
54408;SDS011;40315;48.620;9.828;2023-04-24T11:40:04;2.70;;;0.90;;
54408;SDS011;40315;48.620;9.828;2023-04-24T11:42:36;1.02;;;0.93;;
54408;SDS011;40315;48.620;9.828;2023-04-24T11:45:09;1.52;;;0.80;;
54408;SDS011;40315;48.620;9.828;2023-04-24T11:47:37;1.38;;;0.90;;
54408;SDS011;40315;48.620;9.828;2023-04-24T11:50:05;1.10;;;0.90;;
54408;SDS011;40315;48.620;9.828;2023-04-24T11:52:36;1.00;;;0.80;;
54408;SDS011;40315;48.620;9.828;2023-04-24T11:55:05;1.27;;;0.80;;
54408;SDS011;40315;48.620;9.828;2023-04-24T11:57:34;0.90;;;0.80;;
54408;SDS011;40315;48.620;9.828;2023-04-24T12:00:02;0.75;;;0.70;;
54408;SDS011;40315;48.620;9.828;2023-04-24T12:02:38;1.92;;;0.80;;
54408;SDS011;40315;48.620;9.828;2023-04-24T12:05:08;2.42;;;0.75;;
54408;SDS011;40315;48.620;9.828;2023-04-24T12:07:40;1.27;;;0.70;;
54408;SDS011;40315;48.620;9.828;2023-04-24T12:10:11;0.88;;;0.68;;
54408;SDS011;40315;48.620;9.828;2023-04-24T12:12:38;2.78;;;0.90;;
54408;SDS011;40315;48.620;9.828;2023-04-24T12:15:06;1.85;;;0.80;;
54408;SDS011;40315;48.620;9.828;2023-04-24T12:17:35;0.80;;;0.80;;
54408;SDS011;40315;48.620;9.828;2023-04-24T12:20:04;0.70;;;0.70;;
54408;SDS011;40315;48.620;9.828;2023-04-24T12:22:43;1.00;;;0.85;;
54408;SDS011;40315;48.620;9.828;2023-04-24T12:25:12;0.80;;;0.80;;
54408;SDS011;40315;48.620;9.828;2023-04-24T12:27:41;1.65;;;0.80;;
54408;SDS011;40315;48.620;9.828;2023-04-24T12:30:12;2.60;;;0.95;;
54408;SDS011;40315;48.620;9.828;2023-04-24T12:32:41;2.45;;;1.05;;
54408;SDS011;40315;48.620;9.828;2023-04-24T12:35:10;0.93;;;0.70;;
54408;SDS011;40315;48.620;9.828;2023-04-24T12:37:37;1.02;;;0.90;;
54408;SDS011;40315;48.620;9.828;2023-04-24T12:40:05;1.27;;;1.02;;
54408;SDS011;40315;48.620;9.828;2023-04-24T12:42:41;1.92;;;1.00;;
54408;SDS011;40315;48.620;9.828;2023-04-24T12:45:09;1.38;;;0.95;;
54408;SDS011;40315;48.620;9.828;2023-04-24T12:47:37;1.20;;;0.85;;
54408;SDS011;40315;48.620;9.828;2023-04-24T12:50:05;2.10;;;0.82;;
54408;SDS011;40315;48.620;9.828;2023-04-24T12:52:34;0.73;;;0.73;;
54408;SDS011;40315;48.620;9.828;2023-04-24T12:55:02;1.10;;;1.00;;
54408;SDS011;40315;48.620;9.828;2023-04-24T12:57:30;0.82;;;0.80;;
54408;SDS011;40315;48.620;9.828;2023-04-24T12:59:58;0.70;;;0.70;;
54408;SDS011;40315;48.620;9.828;2023-04-24T13:02:25;0.93;;;0.80;;
54408;SDS011;40315;48.620;9.828;2023-04-24T13:04:57;0.75;;;0.68;;
54408;SDS011;40315;48.620;9.828;2023-04-24T13:07:25;2.85;;;0.90;;
54408;SDS011;40315;48.620;9.828;2023-04-24T13:09:54;0.95;;;0.88;;
54408;SDS011;40315;48.620;9.828;2023-04-24T13:12:22;2.15;;;1.00;;
54408;SDS011;40315;48.620;9.828;2023-04-24T13:14:50;1.98;;;0.98;;
54408;SDS011;40315;48.620;9.828;2023-04-24T13:17:20;1.80;;;1.00;;
54408;SDS011;40315;48.620;9.828;2023-04-24T13:19:49;2.85;;;1.52;;
54408;SDS011;40315;48.620;9.828;2023-04-24T13:22:16;1.65;;;0.98;;
54408;SDS011;40315;48.620;9.828;2023-04-24T13:24:44;2.40;;;0.80;;
54408;SDS011;40315;48.620;9.828;2023-04-24T13:27:17;1.05;;;0.95;;
54408;SDS011;40315;48.620;9.828;2023-04-24T13:29:44;1.98;;;0.95;;
54408;SDS011;40315;48.620;9.828;2023-04-24T13:32:11;5.88;;;4.38;;
54408;SDS011;40315;48.620;9.828;2023-04-24T13:34:38;3.00;;;1.80;;
54408;SDS011;40315;48.620;9.828;2023-04-24T13:37:05;1.45;;;0.98;;
54408;SDS011;40315;48.620;9.828;2023-04-24T13:39:33;0.77;;;0.70;;
54408;SDS011;40315;48.620;9.828;2023-04-24T13:42:00;1.40;;;0.88;;
54408;SDS011;40315;48.620;9.828;2023-04-24T13:44:28;1.10;;;0.90;;
54408;SDS011;40315;48.620;9.828;2023-04-24T13:46:57;0.98;;;0.80;;
54408;SDS011;40315;48.620;9.828;2023-04-24T13:49:26;1.27;;;0.80;;
54408;SDS011;40315;48.620;9.828;2023-04-24T13:51:54;2.03;;;0.93;;
54408;SDS011;40315;48.620;9.828;2023-04-24T13:54:22;1.60;;;0.80;;
54408;SDS011;40315;48.620;9.828;2023-04-24T13:56:51;1.55;;;0.98;;
54408;SDS011;40315;48.620;9.828;2023-04-24T13:59:18;1.30;;;1.20;;
54408;SDS011;40315;48.620;9.828;2023-04-24T14:01:47;1.50;;;0.80;;
54408;SDS011;40315;48.620;9.828;2023-04-24T14:04:15;0.85;;;0.80;;
54408;SDS011;40315;48.620;9.828;2023-04-24T14:06:43;1.00;;;0.90;;
54408;SDS011;40315;48.620;9.828;2023-04-24T14:09:10;1.08;;;0.98;;
54408;SDS011;40315;48.620;9.828;2023-04-24T14:11:37;1.42;;;0.80;;
54408;SDS011;40315;48.620;9.828;2023-04-24T14:14:05;3.45;;;1.00;;
54408;SDS011;40315;48.620;9.828;2023-04-24T14:16:32;1.50;;;1.23;;
54408;SDS011;40315;48.620;9.828;2023-04-24T14:19:01;1.88;;;1.10;;
54408;SDS011;40315;48.620;9.828;2023-04-24T14:21:32;1.48;;;1.05;;
54408;SDS011;40315;48.620;9.828;2023-04-24T14:23:59;2.13;;;1.50;;
54408;SDS011;40315;48.620;9.828;2023-04-24T14:26:26;1.27;;;1.10;;
54408;SDS011;40315;48.620;9.828;2023-04-24T14:28:53;1.65;;;1.52;;
54408;SDS011;40315;48.620;9.828;2023-04-24T14:31:20;2.78;;;1.70;;
54408;SDS011;40315;48.620;9.828;2023-04-24T14:33:47;2.30;;;2.08;;
54408;SDS011;40315;48.620;9.828;2023-04-24T14:36:15;1.80;;;1.48;;
54408;SDS011;40315;48.620;9.828;2023-04-24T14:38:42;1.70;;;1.55;;
54408;SDS011;40315;48.620;9.828;2023-04-24T14:41:09;1.33;;;1.23;;
54408;SDS011;40315;48.620;9.828;2023-04-24T14:43:37;1.52;;;1.30;;
54408;SDS011;40315;48.620;9.828;2023-04-24T14:46:04;3.17;;;1.50;;
54408;SDS011;40315;48.620;9.828;2023-04-24T14:48:31;2.08;;;1.50;;
54408;SDS011;40315;48.620;9.828;2023-04-24T14:50:58;3.33;;;1.50;;
54408;SDS011;40315;48.620;9.828;2023-04-24T14:53:27;1.58;;;1.48;;
54408;SDS011;40315;48.620;9.828;2023-04-24T14:55:54;2.10;;;1.20;;
54408;SDS011;40315;48.620;9.828;2023-04-24T14:58:23;3.25;;;1.67;;
54408;SDS011;40315;48.620;9.828;2023-04-24T15:00:50;2.63;;;1.42;;
54408;SDS011;40315;48.620;9.828;2023-04-24T15:03:19;2.90;;;1.60;;
54408;SDS011;40315;48.620;9.828;2023-04-24T15:05:47;2.20;;;1.27;;
54408;SDS011;40315;48.620;9.828;2023-04-24T15:08:16;1.63;;;1.50;;
54408;SDS011;40315;48.620;9.828;2023-04-24T15:10:44;3.45;;;1.58;;
54408;SDS011;40315;48.620;9.828;2023-04-24T15:13:12;1.63;;;1.50;;